sensor_id;sensor_type;location;lat;lon;timestamp;pressure;altitude;pressure_sealevel;temperature;humidity
53011;BME280;42803;55.762;38.084;2022-10-03T04:35:19;97453.78;;;14.29;100.00
53011;BME280;42803;55.762;38.084;2022-10-03T04:38:21;97455.63;;;14.33;100.00
53011;BME280;42803;55.762;38.084;2022-10-03T04:41:19;97455.47;;;14.27;100.00
53011;BME280;42803;55.762;38.084;2022-10-03T04:44:13;97458.13;;;14.29;100.00
53011;BME280;42803;55.762;38.084;2022-10-03T04:46:53;97446.00;;;14.32;100.00
53011;BME280;42803;55.762;38.084;2022-10-03T04:49:32;97432.88;;;14.32;100.00
53011;BME280;42803;55.762;38.084;2022-10-03T04:52:17;97416.28;;;14.33;100.00
53011;BME280;42803;55.762;38.084;2022-10-03T04:55:16;97405.75;;;14.32;100.00
53011;BME280;42803;55.762;38.084;2022-10-03T04:57:55;97411.91;;;14.34;100.00
53011;BME280;42803;55.762;38.084;2022-10-03T05:00:45;97413.75;;;14.36;100.00
53011;BME280;42803;55.762;38.084;2022-10-03T05:03:31;97413.31;;;14.51;100.00
53011;BME280;42803;55.762;38.084;2022-10-03T05:06:47;97417.13;;;14.62;100.00
53011;BME280;42803;55.762;38.084;2022-10-03T05:09:39;97425.22;;;14.70;100.00
53011;BME280;42803;55.762;38.084;2022-10-03T05:12:58;97408.59;;;14.70;100.00
53011;BME280;42803;55.762;38.084;2022-10-03T05:15:53;97417.25;;;14.67;100.00
53011;BME280;42803;55.762;38.084;2022-10-03T05:18:34;97418.34;;;14.75;100.00
53011;BME280;42803;55.762;38.084;2022-10-03T05:21:32;97415.63;;;14.72;100.00
53011;BME280;42803;55.762;38.084;2022-10-03T05:24:19;97411.34;;;14.74;100.00
53011;BME280;42803;55.762;38.084;2022-10-03T05:27:00;97401.75;;;14.76;100.00
53011;BME280;42803;55.762;38.084;2022-10-03T05:30:03;97397.75;;;14.91;100.00
53011;BME280;42803;55.762;38.084;2022-10-03T05:32:50;97390.94;;;14.99;100.00
53011;BME280;42803;55.762;38.084;2022-10-03T05:35:47;97389.47;;;15.08;100.00
53011;BME280;42803;55.762;38.084;2022-10-03T05:39:14;97385.94;;;15.08;100.00
53011;BME280;42803;55.762;38.084;2022-10-03T05:42:45;97382.25;;;15.00;100.00
53011;BME280;42803;55.762;38.084;2022-10-03T05:46:57;97359.28;;;14.93;100.00
53011;BME280;42803;55.762;38.084;2022-10-03T05:50:51;97352.56;;;15.04;100.00
53011;BME280;42803;55.762;38.084;2022-10-03T05:54:17;97348.50;;;15.18;100.00
53011;BME280;42803;55.762;38.084;2022-10-03T05:58:20;97345.06;;;15.19;100.00
53011;BME280;42803;55.762;38.084;2022-10-03T06:01:15;97332.56;;;15.10;100.00
53011;BME280;42803;55.762;38.084;2022-10-03T06:07:28;97341.50;;;15.17;100.00
53011;BME280;42803;55.762;38.084;2022-10-03T06:14:01;97311.06;;;14.91;100.00
53011;BME280;42803;55.762;38.084;2022-10-03T06:17:21;97346.25;;;14.97;100.00
53011;BME280;42803;55.762;38.084;2022-10-03T06:20:03;97362.13;;;15.02;100.00
53011;BME280;42803;55.762;38.084;2022-10-03T06:47:18;97315.22;;;14.81;100.00
53011;BME280;42803;55.762;38.084;2022-10-03T06:50:39;97312.44;;;14.76;100.00
53011;BME280;42803;55.762;38.084;2022-10-03T06:56:40;97329.84;;;14.71;100.00
53011;BME280;42803;55.762;38.084;2022-10-03T06:59:40;97322.19;;;14.80;100.00
53011;BME280;42803;55.762;38.084;2022-10-03T07:09:05;97318.81;;;14.84;100.00
53011;BME280;42803;55.762;38.084;2022-10-03T07:12:20;97322.81;;;14.70;100.00
53011;BME280;42803;55.762;38.084;2022-10-03T07:22:35;97317.53;;;14.37;100.00
53011;BME280;42803;55.762;38.084;2022-10-03T07:29:07;97346.94;;;14.25;100.00
53011;BME280;42803;55.762;38.084;2022-10-03T07:35:15;97347.59;;;14.17;100.00
53011;BME280;42803;55.762;38.084;2022-10-03T07:44:59;97334.13;;;14.36;100.00
53011;BME280;42803;55.762;38.084;2022-10-03T07:48:04;97330.34;;;14.26;100.00
53011;BME280;42803;55.762;38.084;2022-10-03T07:54:41;97312.25;;;14.35;100.00
53011;BME280;42803;55.762;38.084;2022-10-03T07:57:32;97318.94;;;14.24;100.00
53011;BME280;42803;55.762;38.084;2022-10-03T08:00:29;97322.13;;;14.14;100.00
53011;BME280;42803;55.762;38.084;2022-10-03T08:03:42;97310.28;;;14.28;100.00
53011;BME280;42803;55.762;38.084;2022-10-03T08:06:34;97299.88;;;14.31;100.00
53011;BME280;42803;55.762;38.084;2022-10-03T08:15:39;97310.44;;;14.34;100.00
53011;BME280;42803;55.762;38.084;2022-10-03T08:18:44;97308.44;;;14.24;100.00
53011;BME280;42803;55.762;38.084;2022-10-03T08:21:54;97302.91;;;14.15;100.00
53011;BME280;42803;55.762;38.084;2022-10-03T08:25:00;97305.41;;;14.09;100.00
53011;BME280;42803;55.762;38.084;2022-10-03T08:27:49;97312.94;;;13.97;100.00
53011;BME280;42803;55.762;38.084;2022-10-03T08:30:41;97314.59;;;13.95;100.00
53011;BME280;42803;55.762;38.084;2022-10-03T08:33:53;97327.69;;;13.93;100.00
53011;BME280;42803;55.762;38.084;2022-10-03T08:36:53;97320.69;;;14.25;100.00
53011;BME280;42803;55.762;38.084;2022-10-03T08:39:54;97328.81;;;14.34;100.00
53011;BME280;42803;55.762;38.084;2022-10-03T08:43:04;97342.75;;;14.32;100.00
53011;BME280;42803;55.762;38.084;2022-10-03T08:45:52;97339.28;;;14.33;100.00
53011;BME280;42803;55.762;38.084;2022-10-03T08:51:56;97338.50;;;14.35;100.00
53011;BME280;42803;55.762;38.084;2022-10-03T08:54:48;97350.19;;;14.48;100.00
53011;BME280;42803;55.762;38.084;2022-10-03T08:58:02;97332.53;;;14.74;100.00
53011;BME280;42803;55.762;38.084;2022-10-03T09:01:00;97346.19;;;14.61;100.00
53011;BME280;42803;55.762;38.084;2022-10-03T09:07:22;97338.06;;;14.50;100.00
53011;BME280;42803;55.762;38.084;2022-10-03T09:10:20;97336.09;;;14.45;100.00
53011;BME280;42803;55.762;38.084;2022-10-03T09:13:23;97334.00;;;14.31;100.00
53011;BME280;42803;55.762;38.084;2022-10-03T09:16:47;97334.72;;;14.26;100.00
53011;BME280;42803;55.762;38.084;2022-10-03T09:19:50;97350.25;;;14.18;100.00
53011;BME280;42803;55.762;38.084;2022-10-03T09:22:44;97345.13;;;14.23;100.00
53011;BME280;42803;55.762;38.084;2022-10-03T09:25:40;97347.72;;;14.21;100.00
53011;BME280;42803;55.762;38.084;2022-10-03T09:35:21;97342.69;;;14.60;100.00
53011;BME280;42803;55.762;38.084;2022-10-03T09:38:36;97336.25;;;14.82;100.00
53011;BME280;42803;55.762;38.084;2022-10-03T09:52:52;97350.22;;;13.86;100.00
53011;BME280;42803;55.762;38.084;2022-10-03T09:55:39;97347.28;;;13.77;100.00
53011;BME280;42803;55.762;38.084;2022-10-03T09:58:33;97349.69;;;13.70;100.00
53011;BME280;42803;55.762;38.084;2022-10-03T10:01:23;97354.03;;;13.69;100.00
53011;BME280;42803;55.762;38.084;2022-10-03T10:04:32;97338.59;;;13.78;100.00
53011;BME280;42803;55.762;38.084;2022-10-03T10:07:58;97359.06;;;13.90;100.00
53011;BME280;42803;55.762;38.084;2022-10-03T10:10:55;97355.91;;;14.02;100.00
53011;BME280;42803;55.762;38.084;2022-10-03T10:13:54;97347.47;;;14.12;100.00
53011;BME280;42803;55.762;38.084;2022-10-03T10:19:56;97359.28;;;13.98;100.00
53011;BME280;42803;55.762;38.084;2022-10-03T10:23:03;97356.75;;;14.01;100.00
53011;BME280;42803;55.762;38.084;2022-10-03T10:26:28;97355.25;;;14.09;100.00
53011;BME280;42803;55.762;38.084;2022-10-03T10:29:29;97362.06;;;14.04;100.00
53011;BME280;42803;55.762;38.084;2022-10-03T10:32:43;97352.50;;;14.04;100.00
53011;BME280;42803;55.762;38.084;2022-10-03T10:42:51;97402.94;;;13.67;100.00
53011;BME280;42803;55.762;38.084;2022-10-03T11:00:37;97453.75;;;13.44;100.00
53011;BME280;42803;55.762;38.084;2022-10-03T11:18:01;97491.97;;;13.13;100.00
53011;BME280;42803;55.762;38.084;2022-10-03T11:30:55;97516.16;;;13.06;100.00
53011;BME280;42803;55.762;38.084;2022-10-03T11:37:07;97549.59;;;12.65;100.00
53011;BME280;42803;55.762;38.084;2022-10-03T11:39:44;97550.66;;;12.48;100.00
53011;BME280;42803;55.762;38.084;2022-10-03T11:42:49;97563.72;;;12.70;100.00
53011;BME280;42803;55.762;38.084;2022-10-03T11:45:32;97566.25;;;13.15;100.00
53011;BME280;42803;55.762;38.084;2022-10-03T11:48:38;97576.88;;;13.69;100.00
53011;BME280;42803;55.762;38.084;2022-10-03T11:51:14;97569.66;;;13.87;100.00
53011;BME280;42803;55.762;38.084;2022-10-03T11:54:01;97572.16;;;13.84;100.00
53011;BME280;42803;55.762;38.084;2022-10-03T11:57:00;97586.38;;;13.91;100.00
53011;BME280;42803;55.762;38.084;2022-10-03T12:00:02;97582.53;;;13.30;100.00
53011;BME280;42803;55.762;38.084;2022-10-03T12:03:12;97594.00;;;13.10;100.00
53011;BME280;42803;55.762;38.084;2022-10-03T12:05:57;97589.47;;;13.28;100.00
53011;BME280;42803;55.762;38.084;2022-10-03T12:08:50;97595.09;;;12.92;100.00
53011;BME280;42803;55.762;38.084;2022-10-03T12:11:27;97598.72;;;12.72;100.00
53011;BME280;42803;55.762;38.084;2022-10-03T12:14:06;97614.69;;;13.02;100.00
53011;BME280;42803;55.762;38.084;2022-10-03T12:16:56;97609.56;;;13.53;100.00
53011;BME280;42803;55.762;38.084;2022-10-03T12:19:38;97620.56;;;13.69;100.00
53011;BME280;42803;55.762;38.084;2022-10-03T12:22:25;97616.56;;;13.54;100.00
53011;BME280;42803;55.762;38.084;2022-10-03T12:25:12;97633.50;;;13.38;99.32
53011;BME280;42803;55.762;38.084;2022-10-03T12:28:08;97646.69;;;13.17;98.68
53011;BME280;42803;55.762;38.084;2022-10-03T12:30:54;97645.94;;;12.98;98.05
53011;BME280;42803;55.762;38.084;2022-10-03T12:33:43;97651.91;;;12.93;98.62
53011;BME280;42803;55.762;38.084;2022-10-03T12:36:17;97657.97;;;12.92;98.02
53011;BME280;42803;55.762;38.084;2022-10-03T12:39:04;97664.88;;;12.68;96.06
53011;BME280;42803;55.762;38.084;2022-10-03T12:45:59;97688.75;;;12.55;93.60
53011;BME280;42803;55.762;38.084;2022-10-03T12:48:41;97694.56;;;12.25;93.69
53011;BME280;42803;55.762;38.084;2022-10-03T12:55:26;97709.63;;;11.90;93.80
53011;BME280;42803;55.762;38.084;2022-10-03T12:58:14;97713.91;;;11.88;93.68
53011;BME280;42803;55.762;38.084;2022-10-03T13:00:53;97716.41;;;11.85;94.10
53011;BME280;42803;55.762;38.084;2022-10-03T13:03:36;97734.28;;;11.95;94.06
53011;BME280;42803;55.762;38.084;2022-10-03T13:06:35;97730.91;;;11.98;92.08
53011;BME280;42803;55.762;38.084;2022-10-03T13:10:01;97748.72;;;11.68;91.98
53011;BME280;42803;55.762;38.084;2022-10-03T13:13:29;97760.13;;;11.51;95.25
53011;BME280;42803;55.762;38.084;2022-10-03T13:19:45;97757.75;;;11.18;92.75
53011;BME280;42803;55.762;38.084;2022-10-03T13:23:59;97762.25;;;11.03;93.59
53011;BME280;42803;55.762;38.084;2022-10-03T13:27:38;97784.81;;;10.83;92.43
53011;BME280;42803;55.762;38.084;2022-10-03T13:30:20;97784.66;;;10.80;93.15
53011;BME280;42803;55.762;38.084;2022-10-03T13:32:56;97797.63;;;10.78;95.30
53011;BME280;42803;55.762;38.084;2022-10-03T13:35:37;97796.59;;;10.92;93.38
53011;BME280;42803;55.762;38.084;2022-10-03T13:38:57;97798.16;;;10.89;92.13
53011;BME280;42803;55.762;38.084;2022-10-03T13:41:58;97813.34;;;10.80;92.06
53011;BME280;42803;55.762;38.084;2022-10-03T13:44:36;97818.88;;;10.68;90.97
53011;BME280;42803;55.762;38.084;2022-10-03T13:47:40;97829.38;;;10.52;90.68
53011;BME280;42803;55.762;38.084;2022-10-03T13:50:17;97838.31;;;10.39;92.37
53011;BME280;42803;55.762;38.084;2022-10-03T13:52:58;97845.13;;;10.37;92.68
53011;BME280;42803;55.762;38.084;2022-10-03T13:55:39;97850.28;;;10.35;91.83
53011;BME280;42803;55.762;38.084;2022-10-03T13:58:39;97850.44;;;10.38;91.24
53011;BME280;42803;55.762;38.084;2022-10-03T14:01:36;97859.00;;;10.36;90.59
53011;BME280;42803;55.762;38.084;2022-10-03T14:04:46;97862.75;;;10.08;91.72
53011;BME280;42803;55.762;38.084;2022-10-03T14:07:27;97862.19;;;9.81;92.03
53011;BME280;42803;55.762;38.084;2022-10-03T14:10:20;97881.22;;;9.80;93.46
53011;BME280;42803;55.762;38.084;2022-10-03T14:13:17;97881.09;;;9.77;93.88
53011;BME280;42803;55.762;38.084;2022-10-03T14:16:21;97887.09;;;9.76;94.96
53011;BME280;42803;55.762;38.084;2022-10-03T14:19:40;97904.03;;;9.84;95.05
53011;BME280;42803;55.762;38.084;2022-10-03T14:22:47;97911.22;;;9.88;94.83
53011;BME280;42803;55.762;38.084;2022-10-03T14:25:25;97923.34;;;9.88;94.55
53011;BME280;42803;55.762;38.084;2022-10-03T14:28:11;97925.75;;;9.68;93.97
53011;BME280;42803;55.762;38.084;2022-10-03T14:30:59;97929.06;;;9.49;95.34
53011;BME280;42803;55.762;38.084;2022-10-03T14:33:42;97936.31;;;9.24;95.53
53011;BME280;42803;55.762;38.084;2022-10-03T14:36:35;97935.97;;;9.03;97.32
53011;BME280;42803;55.762;38.084;2022-10-03T14:39:34;97945.75;;;8.92;97.06
53011;BME280;42803;55.762;38.084;2022-10-03T14:42:45;97950.25;;;8.80;98.61
53011;BME280;42803;55.762;38.084;2022-10-03T14:45:21;97955.16;;;8.61;98.00
53011;BME280;42803;55.762;38.084;2022-10-03T14:47:57;97956.84;;;8.45;98.96
53011;BME280;42803;55.762;38.084;2022-10-03T14:50:32;97964.72;;;8.47;98.81
53011;BME280;42803;55.762;38.084;2022-10-03T14:53:04;97955.69;;;8.40;99.57
53011;BME280;42803;55.762;38.084;2022-10-03T14:55:44;97967.72;;;8.25;99.50
53011;BME280;42803;55.762;38.084;2022-10-03T14:58:21;97974.50;;;8.23;99.31
53011;BME280;42803;55.762;38.084;2022-10-03T15:01:02;97970.75;;;8.18;100.00
53011;BME280;42803;55.762;38.084;2022-10-03T15:03:37;97983.34;;;8.12;100.00
53011;BME280;42803;55.762;38.084;2022-10-03T15:09:08;97977.59;;;8.02;100.00
53011;BME280;42803;55.762;38.084;2022-10-03T15:11:48;97982.59;;;7.99;100.00
53011;BME280;42803;55.762;38.084;2022-10-03T15:14:33;97987.53;;;7.81;100.00
53011;BME280;42803;55.762;38.084;2022-10-03T15:17:18;97987.25;;;7.77;100.00
53011;BME280;42803;55.762;38.084;2022-10-03T15:19:52;97998.06;;;7.56;100.00
53011;BME280;42803;55.762;38.084;2022-10-03T15:22:29;97999.38;;;7.50;100.00
53011;BME280;42803;55.762;38.084;2022-10-03T15:25:15;97995.25;;;7.40;100.00
53011;BME280;42803;55.762;38.084;2022-10-03T15:28:14;98009.16;;;7.41;100.00
53011;BME280;42803;55.762;38.084;2022-10-03T15:30:53;98006.25;;;7.49;100.00
53011;BME280;42803;55.762;38.084;2022-10-03T15:33:27;98013.63;;;7.83;100.00
53011;BME280;42803;55.762;38.084;2022-10-03T15:36:08;98012.75;;;7.97;100.00
53011;BME280;42803;55.762;38.084;2022-10-03T15:38:41;98014.16;;;8.05;100.00
53011;BME280;42803;55.762;38.084;2022-10-03T15:41:13;98016.44;;;8.01;99.83
53011;BME280;42803;55.762;38.084;2022-10-03T15:43:56;98015.75;;;8.03;100.00
53011;BME280;42803;55.762;38.084;2022-10-03T15:46:32;98004.13;;;8.12;100.00
53011;BME280;42803;55.762;38.084;2022-10-03T15:49:07;98008.34;;;8.10;100.00
53011;BME280;42803;55.762;38.084;2022-10-03T15:51:44;98010.75;;;8.06;100.00
53011;BME280;42803;55.762;38.084;2022-10-03T15:54:21;98017.66;;;8.06;100.00
53011;BME280;42803;55.762;38.084;2022-10-03T15:57:04;98017.38;;;8.01;100.00
53011;BME280;42803;55.762;38.084;2022-10-03T15:59:42;98013.91;;;8.16;100.00
53011;BME280;42803;55.762;38.084;2022-10-03T16:02:15;98012.13;;;8.15;100.00
53011;BME280;42803;55.762;38.084;2022-10-03T16:04:52;98006.78;;;8.26;100.00
53011;BME280;42803;55.762;38.084;2022-10-03T16:07:34;98016.84;;;8.35;100.00
53011;BME280;42803;55.762;38.084;2022-10-03T16:10:16;98013.47;;;8.36;100.00
53011;BME280;42803;55.762;38.084;2022-10-03T16:12:56;98009.78;;;8.61;99.95
53011;BME280;42803;55.762;38.084;2022-10-03T16:22:40;98022.03;;;8.91;98.79
53011;BME280;42803;55.762;38.084;2022-10-03T16:25:19;98019.63;;;8.94;98.76
53011;BME280;42803;55.762;38.084;2022-10-03T16:27:53;98027.69;;;8.99;98.43
53011;BME280;42803;55.762;38.084;2022-10-03T16:30:30;98027.44;;;9.09;98.95
53011;BME280;42803;55.762;38.084;2022-10-03T16:33:15;98029.66;;;9.03;99.02
53011;BME280;42803;55.762;38.084;2022-10-03T16:35:53;98039.56;;;9.09;98.63
53011;BME280;42803;55.762;38.084;2022-10-03T16:38:39;98041.41;;;8.96;100.00
53011;BME280;42803;55.762;38.084;2022-10-03T16:41:38;98060.81;;;9.01;99.70
53011;BME280;42803;55.762;38.084;2022-10-03T16:44:27;98049.66;;;9.04;100.00
53011;BME280;42803;55.762;38.084;2022-10-03T16:47:32;98058.28;;;9.03;100.00
53011;BME280;42803;55.762;38.084;2022-10-03T16:50:50;98066.38;;;9.08;100.00
53011;BME280;42803;55.762;38.084;2022-10-03T16:53:32;98069.44;;;9.00;100.00
53011;BME280;42803;55.762;38.084;2022-10-03T16:56:07;98071.88;;;9.12;100.00
53011;BME280;42803;55.762;38.084;2022-10-03T16:58:45;98070.34;;;9.16;100.00
53011;BME280;42803;55.762;38.084;2022-10-03T17:01:33;98089.28;;;9.13;100.00
53011;BME280;42803;55.762;38.084;2022-10-03T17:04:18;98086.66;;;8.98;100.00
53011;BME280;42803;55.762;38.084;2022-10-03T17:07:20;98089.88;;;8.94;100.00
53011;BME280;42803;55.762;38.084;2022-10-03T17:11:07;98089.16;;;9.12;100.00
53011;BME280;42803;55.762;38.084;2022-10-03T17:13:50;98087.03;;;9.05;100.00
53011;BME280;42803;55.762;38.084;2022-10-03T17:17:49;98110.00;;;9.12;100.00
53011;BME280;42803;55.762;38.084;2022-10-03T17:26:45;98105.53;;;9.09;100.00
53011;BME280;42803;55.762;38.084;2022-10-03T17:32:37;98115.75;;;9.06;100.00
53011;BME280;42803;55.762;38.084;2022-10-03T17:35:32;98110.44;;;9.05;100.00
53011;BME280;42803;55.762;38.084;2022-10-03T17:38:22;98120.94;;;9.06;100.00
53011;BME280;42803;55.762;38.084;2022-10-03T17:41:22;98122.91;;;9.10;100.00
53011;BME280;42803;55.762;38.084;2022-10-03T17:44:27;98117.88;;;8.98;100.00
53011;BME280;42803;55.762;38.084;2022-10-03T17:47:16;98115.47;;;9.01;100.00
53011;BME280;42803;55.762;38.084;2022-10-03T17:49:59;98128.66;;;9.05;100.00
53011;BME280;42803;55.762;38.084;2022-10-03T17:52:43;98124.63;;;9.10;100.00
53011;BME280;42803;55.762;38.084;2022-10-03T17:56:31;98124.44;;;9.07;100.00
53011;BME280;42803;55.762;38.084;2022-10-03T17:59:20;98127.63;;;9.16;100.00
53011;BME280;42803;55.762;38.084;2022-10-03T18:02:24;98149.19;;;9.28;100.00
53011;BME280;42803;55.762;38.084;2022-10-03T18:09:21;98142.31;;;9.00;100.00
53011;BME280;42803;55.762;38.084;2022-10-03T18:12:10;98157.03;;;9.15;100.00
53011;BME280;42803;55.762;38.084;2022-10-03T18:22:03;98158.16;;;9.33;100.00
53011;BME280;42803;55.762;38.084;2022-10-03T18:25:38;98170.34;;;9.34;100.00
53011;BME280;42803;55.762;38.084;2022-10-03T18:28:55;98170.34;;;9.34;100.00
53011;BME280;42803;55.762;38.084;2022-10-03T18:31:39;98173.16;;;9.37;100.00
53011;BME280;42803;55.762;38.084;2022-10-03T18:34:33;98167.13;;;9.38;100.00
53011;BME280;42803;55.762;38.084;2022-10-03T18:40:33;98183.66;;;9.53;100.00
53011;BME280;42803;55.762;38.084;2022-10-03T18:43:06;98190.31;;;9.48;100.00
53011;BME280;42803;55.762;38.084;2022-10-03T18:46:21;98205.09;;;9.92;100.00
53011;BME280;42803;55.762;38.084;2022-10-03T18:49:05;98201.28;;;10.17;100.00
53011;BME280;42803;55.762;38.084;2022-10-03T18:52:29;98202.56;;;10.09;100.00
53011;BME280;42803;55.762;38.084;2022-10-03T18:55:12;98203.44;;;10.24;99.95
53011;BME280;42803;55.762;38.084;2022-10-03T18:57:53;98214.69;;;10.38;99.19
53011;BME280;42803;55.762;38.084;2022-10-03T19:00:44;98213.00;;;10.09;99.39
53011;BME280;42803;55.762;38.084;2022-10-03T19:03:27;98220.00;;;10.24;98.42
53011;BME280;42803;55.762;38.084;2022-10-03T19:06:05;98225.59;;;10.31;98.53
53011;BME280;42803;55.762;38.084;2022-10-03T19:08:47;98224.56;;;10.43;98.77
53011;BME280;42803;55.762;38.084;2022-10-03T19:15:16;98226.81;;;10.37;97.31
53011;BME280;42803;55.762;38.084;2022-10-03T19:18:18;98240.69;;;10.36;97.78
53011;BME280;42803;55.762;38.084;2022-10-03T19:21:00;98232.78;;;10.20;98.49
53011;BME280;42803;55.762;38.084;2022-10-03T19:23:40;98246.88;;;10.09;100.00
53011;BME280;42803;55.762;38.084;2022-10-03T19:26:26;98247.41;;;10.18;99.70
53011;BME280;42803;55.762;38.084;2022-10-03T19:29:13;98232.44;;;10.29;100.00
53011;BME280;42803;55.762;38.084;2022-10-03T19:32:02;98238.63;;;10.45;98.35
53011;BME280;42803;55.762;38.084;2022-10-03T19:34:43;98248.25;;;10.46;97.26
53011;BME280;42803;55.762;38.084;2022-10-03T19:37:32;98252.38;;;10.43;97.90
53011;BME280;42803;55.762;38.084;2022-10-03T19:40:36;98256.88;;;10.45;97.84
53011;BME280;42803;55.762;38.084;2022-10-03T19:43:33;98260.44;;;10.62;97.41
53011;BME280;42803;55.762;38.084;2022-10-03T19:46:19;98264.06;;;10.49;97.22
53011;BME280;42803;55.762;38.084;2022-10-03T19:49:16;98267.00;;;10.56;97.47
53011;BME280;42803;55.762;38.084;2022-10-03T19:52:15;98258.66;;;10.61;96.94
53011;BME280;42803;55.762;38.084;2022-10-03T19:54:58;98273.41;;;10.61;97.22
53011;BME280;42803;55.762;38.084;2022-10-03T19:57:44;98270.88;;;10.93;96.42
53011;BME280;42803;55.762;38.084;2022-10-03T20:00:30;98275.63;;;11.01;96.43
53011;BME280;42803;55.762;38.084;2022-10-03T20:03:21;98264.47;;;11.03;94.34
53011;BME280;42803;55.762;38.084;2022-10-03T20:06:22;98270.34;;;10.99;94.46
53011;BME280;42803;55.762;38.084;2022-10-03T20:09:03;98278.66;;;11.08;94.11
53011;BME280;42803;55.762;38.084;2022-10-03T20:11:41;98280.28;;;10.75;94.29
53011;BME280;42803;55.762;38.084;2022-10-03T20:14:20;98283.66;;;10.58;95.30
53011;BME280;42803;55.762;38.084;2022-10-03T20:16:56;98291.75;;;10.47;97.25
53011;BME280;42803;55.762;38.084;2022-10-03T20:19:35;98283.13;;;10.34;96.72
53011;BME280;42803;55.762;38.084;2022-10-03T20:22:12;98292.84;;;10.36;96.70
53011;BME280;42803;55.762;38.084;2022-10-03T20:24:44;98296.53;;;10.40;97.45
53011;BME280;42803;55.762;38.084;2022-10-03T20:27:25;98290.50;;;10.41;97.24
53011;BME280;42803;55.762;38.084;2022-10-03T20:30:06;98290.69;;;10.29;97.74
53011;BME280;42803;55.762;38.084;2022-10-03T20:32:38;98295.44;;;10.21;97.51
53011;BME280;42803;55.762;38.084;2022-10-03T20:35:25;98310.81;;;10.17;98.30
53011;BME280;42803;55.762;38.084;2022-10-03T20:37:58;98309.03;;;10.16;98.08
53011;BME280;42803;55.762;38.084;2022-10-03T20:40:34;98309.03;;;10.16;98.18
53011;BME280;42803;55.762;38.084;2022-10-03T20:43:29;98302.16;;;10.18;98.47
53011;BME280;42803;55.762;38.084;2022-10-03T20:46:37;98319.25;;;10.13;99.71
53011;BME280;42803;55.762;38.084;2022-10-03T20:49:26;98327.75;;;9.95;99.39
53011;BME280;42803;55.762;38.084;2022-10-03T20:52:00;98325.66;;;9.75;99.44
53011;BME280;42803;55.762;38.084;2022-10-03T20:54:35;98311.06;;;9.64;100.00
53011;BME280;42803;55.762;38.084;2022-10-03T20:57:16;98329.91;;;9.73;100.00
53011;BME280;42803;55.762;38.084;2022-10-03T20:59:50;98324.22;;;9.80;100.00
53011;BME280;42803;55.762;38.084;2022-10-03T21:02:28;98336.47;;;9.81;100.00
53011;BME280;42803;55.762;38.084;2022-10-03T21:05:02;98322.44;;;9.79;100.00
53011;BME280;42803;55.762;38.084;2022-10-03T21:07:47;98329.91;;;9.73;100.00
53011;BME280;42803;55.762;38.084;2022-10-03T21:10:25;98317.44;;;9.54;100.00
53011;BME280;42803;55.762;38.084;2022-10-03T21:13:00;98324.88;;;9.48;100.00
53011;BME280;42803;55.762;38.084;2022-10-03T21:15:36;98330.78;;;9.45;100.00
53011;BME280;42803;55.762;38.084;2022-10-03T21:18:17;98327.88;;;9.41;100.00
53011;BME280;42803;55.762;38.084;2022-10-03T21:20:58;98332.59;;;9.46;100.00
53011;BME280;42803;55.762;38.084;2022-10-03T21:23:33;98338.56;;;9.59;100.00
53011;BME280;42803;55.762;38.084;2022-10-03T21:26:07;98344.53;;;9.71;100.00
53011;BME280;42803;55.762;38.084;2022-10-03T21:28:37;98342.66;;;9.83;100.00
53011;BME280;42803;55.762;38.084;2022-10-03T21:31:19;98344.66;;;9.87;100.00
53011;BME280;42803;55.762;38.084;2022-10-03T21:33:57;98343.66;;;9.85;100.00
53011;BME280;42803;55.762;38.084;2022-10-03T21:36:43;98354.28;;;9.88;100.00
53011;BME280;42803;55.762;38.084;2022-10-03T21:39:23;98359.03;;;9.95;100.00
53011;BME280;42803;55.762;38.084;2022-10-03T21:42:04;98360.06;;;9.97;100.00
53011;BME280;42803;55.762;38.084;2022-10-03T21:44:52;98365.25;;;9.97;100.00
53011;BME280;42803;55.762;38.084;2022-10-03T21:47:38;98364.63;;;10.01;100.00
53011;BME280;42803;55.762;38.084;2022-10-03T21:50:18;98355.38;;;10.07;100.00
53011;BME280;42803;55.762;38.084;2022-10-03T21:55:57;98358.44;;;9.71;100.00
53011;BME280;42803;55.762;38.084;2022-10-03T21:58:38;98360.56;;;9.64;100.00
53011;BME280;42803;55.762;38.084;2022-10-03T22:01:16;98358.59;;;9.60;100.00
53011;BME280;42803;55.762;38.084;2022-10-03T22:03:52;98363.41;;;9.53;100.00
53011;BME280;42803;55.762;38.084;2022-10-03T22:06:31;98362.03;;;9.45;100.00
53011;BME280;42803;55.762;38.084;2022-10-03T22:09:09;98369.97;;;9.34;100.00
53011;BME280;42803;55.762;38.084;2022-10-03T22:11:43;98367.50;;;9.22;100.00
53011;BME280;42803;55.762;38.084;2022-10-03T22:14:24;98369.31;;;9.10;100.00
53011;BME280;42803;55.762;38.084;2022-10-03T22:17:06;98384.13;;;9.11;100.00
53011;BME280;42803;55.762;38.084;2022-10-03T22:19:43;98380.81;;;9.13;100.00
53011;BME280;42803;55.762;38.084;2022-10-03T22:22:38;98379.94;;;9.13;100.00
53011;BME280;42803;55.762;38.084;2022-10-03T22:25:19;98370.81;;;9.06;100.00
53011;BME280;42803;55.762;38.084;2022-10-03T22:27:59;98384.53;;;9.03;100.00
53011;BME280;42803;55.762;38.084;2022-10-03T22:30:35;98380.53;;;8.95;100.00
53011;BME280;42803;55.762;38.084;2022-10-03T22:33:12;98386.13;;;9.01;100.00
53011;BME280;42803;55.762;38.084;2022-10-03T22:35:48;98392.56;;;8.93;100.00
53011;BME280;42803;55.762;38.084;2022-10-03T22:38:22;98411.94;;;8.85;100.00
53011;BME280;42803;55.762;38.084;2022-10-03T22:40:54;98400.47;;;8.82;100.00
53011;BME280;42803;55.762;38.084;2022-10-03T22:43:27;98395.34;;;8.83;100.00
53011;BME280;42803;55.762;38.084;2022-10-03T22:45:57;98401.56;;;8.98;100.00
53011;BME280;42803;55.762;38.084;2022-10-03T22:48:30;98409.25;;;9.10;100.00